createdAt,value
2019-04-27T00:00:14.657Z,99.90
2019-04-27T00:02:55.823Z,99.90
2019-04-27T00:05:41.290Z,99.90
2019-04-27T00:08:35.076Z,99.90
2019-04-27T00:11:11.649Z,99.90
2019-04-27T00:13:43.742Z,99.90
2019-04-27T00:16:31.343Z,99.90
2019-04-27T00:19:18.460Z,99.90
2019-04-27T00:21:50.406Z,99.90
2019-04-27T00:24:21.156Z,99.90
2019-04-27T00:26:51.685Z,99.90
2019-04-27T00:29:21.803Z,99.90
2019-04-27T00:31:53.416Z,99.90
2019-04-27T00:34:24.383Z,99.90
2019-04-27T00:36:59.330Z,99.90
2019-04-27T00:39:46.857Z,99.90
2019-04-27T00:42:17.481Z,99.90
2019-04-27T00:44:47.710Z,99.90
2019-04-27T00:47:18.239Z,99.90
2019-04-27T00:49:48.767Z,99.90
2019-04-27T00:52:19.091Z,99.90
2019-04-27T00:54:49.415Z,99.90
2019-04-27T00:57:22.865Z,99.90
2019-04-27T01:00:11.363Z,99.90
2019-04-27T01:02:46.192Z,99.90
2019-04-27T01:05:18.155Z,99.90
2019-04-27T01:07:48.479Z,99.90
2019-04-27T01:10:19.417Z,99.90
2019-04-27T01:12:50.151Z,99.90
2019-04-27T01:15:20.680Z,99.90
2019-04-27T01:17:51.208Z,99.90
2019-04-27T01:20:21.928Z,99.90
2019-04-27T01:22:52.065Z,99.90
2019-04-27T01:25:24.227Z,99.90
2019-04-27T01:27:59.644Z,99.90
2019-04-27T01:30:32.657Z,99.90
2019-04-27T01:33:03.186Z,99.90
2019-04-27T01:35:33.511Z,99.90
2019-04-27T01:38:15.980Z,99.90
2019-04-27T01:40:46.246Z,99.90
2019-04-27T01:43:16.585Z,99.90
2019-04-27T01:45:48.737Z,99.90
2019-04-27T01:48:25.883Z,99.90
2019-04-27T01:50:55.524Z,99.90
2019-04-27T01:53:26.462Z,99.90
2019-04-27T01:55:59.055Z,99.90
2019-04-27T01:58:29.304Z,99.90
2019-04-27T02:01:09.532Z,99.90
2019-04-27T02:03:59.048Z,99.90
2019-04-27T02:06:30.363Z,99.90
2019-04-27T02:09:00.765Z,99.90
2019-04-27T02:11:31.091Z,99.90
2019-04-27T02:14:01.414Z,99.90
2019-04-27T02:16:31.739Z,99.90
2019-04-27T02:19:02.061Z,99.90
2019-04-27T02:21:32.386Z,99.90
2019-04-27T02:24:03.214Z,99.90
2019-04-27T02:26:33.441Z,99.90
2019-04-27T02:29:14.622Z,99.90
2019-04-27T02:31:50.035Z,99.90
2019-04-27T02:34:22.236Z,99.90
2019-04-27T02:36:52.560Z,99.90
2019-04-27T02:39:22.878Z,99.90
2019-04-27T02:41:53.202Z,99.90
2019-04-27T02:44:24.960Z,99.90
2019-04-27T02:46:55.285Z,99.90
2019-04-27T02:49:25.825Z,99.90
2019-04-27T02:52:00.852Z,99.90
2019-04-27T02:54:31.783Z,99.90
2019-04-27T02:57:02.312Z,99.90
2019-04-27T02:59:32.830Z,99.90
2019-04-27T03:02:20.781Z,99.90
2019-04-27T03:04:51.511Z,99.90
2019-04-27T03:07:22.039Z,99.90
2019-04-27T03:09:52.776Z,99.90
2019-04-27T03:12:24.734Z,99.90
2019-04-27T03:15:10.323Z,99.90
2019-04-27T03:17:42.384Z,99.90
2019-04-27T03:20:30.537Z,99.90
2019-04-27T03:23:02.485Z,99.90
2019-04-27T03:25:37.108Z,99.90
2019-04-27T03:28:10.713Z,99.90
2019-04-27T03:30:43.006Z,99.90
2019-04-27T03:33:13.203Z,99.90
2019-04-27T03:35:44.358Z,99.90
2019-04-27T03:38:14.871Z,99.90
2019-04-27T03:40:45.199Z,99.90
2019-04-27T03:43:20.256Z,99.90
2019-04-27T03:45:52.478Z,99.90
2019-04-27T03:48:22.514Z,99.90
2019-04-27T03:51:10.168Z,99.90
2019-04-27T03:53:49.718Z,99.90
2019-04-27T03:56:21.953Z,99.90
2019-04-27T03:58:53.916Z,99.90
2019-04-27T04:01:24.240Z,99.90
2019-04-27T04:03:54.766Z,99.90
2019-04-27T04:06:25.500Z,99.90
2019-04-27T04:08:56.032Z,99.90
2019-04-27T04:11:30.286Z,99.90
2019-04-27T04:14:06.919Z,99.90
2019-04-27T04:16:41.544Z,99.90
2019-04-27T04:19:12.166Z,99.90
2019-04-27T04:21:42.392Z,99.90
2019-04-27T04:24:12.924Z,99.90
2019-04-27T04:26:43.247Z,99.90
2019-04-27T04:29:13.982Z,99.90
2019-04-27T04:31:44.099Z,99.90
2019-04-27T04:34:14.628Z,99.90
2019-04-27T04:36:44.951Z,99.90
2019-04-27T04:39:15.278Z,99.90
2019-04-27T04:41:47.246Z,99.90
2019-04-27T04:47:26.806Z,99.90
2019-04-27T04:50:08.578Z,99.90
2019-04-27T04:52:29.531Z,99.90
2019-04-27T04:55:02.699Z,99.90
2019-04-27T04:57:31.778Z,99.90
2019-04-27T05:00:02.104Z,99.90
2019-04-27T05:02:32.636Z,99.90
2019-04-27T05:05:02.952Z,99.90
2019-04-27T05:07:33.276Z,99.90
2019-04-27T05:10:04.215Z,99.90
2019-04-27T05:12:34.531Z,99.90
2019-04-27T05:15:05.676Z,99.90
2019-04-27T05:17:35.681Z,99.90
2019-04-27T05:20:10.022Z,99.90
2019-04-27T05:22:39.342Z,99.90
2019-04-27T05:25:09.337Z,99.90
2019-04-27T05:27:40.798Z,99.90
2019-04-27T05:30:10.689Z,99.90
2019-04-27T05:32:40.551Z,99.90
2019-04-27T05:35:10.463Z,99.90
2019-04-27T05:37:40.356Z,99.90
2019-04-27T05:40:10.239Z,99.90
2019-04-27T05:42:40.127Z,99.90
2019-04-27T05:45:26.673Z,99.90
2019-04-27T05:48:01.092Z,99.90
2019-04-27T05:50:37.756Z,99.90
2019-04-27T05:53:02.663Z,99.90
2019-04-27T05:55:32.521Z,99.90
2019-04-27T05:58:02.343Z,99.90
2019-04-27T06:00:32.321Z,99.90
2019-04-27T06:03:02.229Z,99.90
2019-04-27T06:05:32.587Z,99.90
2019-04-27T06:08:02.523Z,99.90
2019-04-27T06:10:32.412Z,99.90
2019-04-27T06:13:02.405Z,99.90
2019-04-27T06:15:32.362Z,99.60
2019-04-27T06:18:02.259Z,99.30
2019-04-27T06:20:32.378Z,99.90
2019-04-27T06:23:02.272Z,99.40
2019-04-27T06:25:32.263Z,99.10
2019-04-27T06:28:02.274Z,99.90
2019-04-27T06:30:32.460Z,99.90
2019-04-27T06:33:02.340Z,99.80
2019-04-27T06:35:32.282Z,99.10
2019-04-27T06:38:02.305Z,99.40
2019-04-27T06:40:32.209Z,99.50
2019-04-27T06:43:02.148Z,99.20
2019-04-27T06:45:32.286Z,99.00
2019-04-27T06:48:02.815Z,98.80
2019-04-27T06:50:32.933Z,98.80
2019-04-27T06:53:03.262Z,98.40
2019-04-27T06:55:33.991Z,98.50
2019-04-27T06:58:04.314Z,99.20
2019-04-27T07:00:34.843Z,98.50
2019-04-27T07:03:05.167Z,98.50
2019-04-27T07:05:35.490Z,97.20
2019-04-27T07:08:05.605Z,96.10
2019-04-27T07:10:35.729Z,95.90
2019-04-27T07:13:06.074Z,95.30
2019-04-27T07:15:36.375Z,95.00
2019-04-27T07:18:07.108Z,93.80
2019-04-27T07:20:38.756Z,93.90
2019-04-27T07:23:09.485Z,92.80
2019-04-27T07:25:40.129Z,92.00
2019-04-27T07:28:10.471Z,93.10
2019-04-27T07:30:40.776Z,94.70
2019-04-27T07:33:11.101Z,95.50
2019-04-27T07:35:41.423Z,96.20
2019-04-27T07:38:12.951Z,96.60
2019-04-27T07:40:43.704Z,96.40
2019-04-27T07:43:15.468Z,95.70
2019-04-27T07:45:45.586Z,95.00
2019-04-27T07:48:15.969Z,94.20
2019-04-27T07:50:46.438Z,92.50
2019-04-27T07:53:16.762Z,90.80
2019-04-27T07:55:47.281Z,90.10
2019-04-27T07:58:17.410Z,90.30
2019-04-27T08:00:49.482Z,88.60
2019-04-27T08:03:19.900Z,86.50
2019-04-27T08:05:50.224Z,82.20
2019-04-27T08:08:20.551Z,81.90
2019-04-27T08:10:51.283Z,79.90
2019-04-27T08:13:21.181Z,78.70
2019-04-27T08:15:51.199Z,79.90
2019-04-27T08:18:22.857Z,78.10
2019-04-27T08:20:56.906Z,75.40
2019-04-27T08:23:25.938Z,71.50
2019-04-27T08:25:58.882Z,68.60
2019-04-27T08:28:30.553Z,67.10
2019-04-27T08:31:02.065Z,66.70
2019-04-27T08:33:31.989Z,66.00
2019-04-27T08:36:01.811Z,63.80
2019-04-27T08:38:33.147Z,62.30
2019-04-27T08:41:03.563Z,59.70
2019-04-27T08:43:35.732Z,60.30
2019-04-27T08:46:05.873Z,59.50
2019-04-27T08:48:37.012Z,59.20
2019-04-27T08:51:09.278Z,57.80
2019-04-27T08:53:39.818Z,58.10
2019-04-27T08:56:09.983Z,56.90
2019-04-27T08:58:39.885Z,57.10
2019-04-27T09:01:10.417Z,57.30
2019-04-27T09:03:40.431Z,56.00
2019-04-27T09:06:11.871Z,54.80
2019-04-27T09:08:46.390Z,55.00
2019-04-27T09:11:18.660Z,54.10
2019-04-27T09:13:54.244Z,54.00
2019-04-27T09:16:28.825Z,54.10
2019-04-27T09:19:00.596Z,53.80
2019-04-27T09:21:32.192Z,54.90
2019-04-27T09:24:02.210Z,54.60
2019-04-27T09:26:32.219Z,54.20
2019-04-27T09:29:02.273Z,56.00
2019-04-27T09:31:32.162Z,56.20
2019-04-27T09:34:02.045Z,56.00
2019-04-27T09:36:31.871Z,57.00
2019-04-27T09:39:01.921Z,57.00
2019-04-27T09:41:31.763Z,57.00
2019-04-27T09:44:02.958Z,58.40
2019-04-27T09:46:33.280Z,58.80
2019-04-27T09:49:03.817Z,58.60
2019-04-27T09:51:36.265Z,59.00
2019-04-27T09:54:06.095Z,60.00
2019-04-27T09:56:36.343Z,62.40
2019-04-27T09:59:06.488Z,63.70
2019-04-27T10:01:36.959Z,64.50
2019-04-27T10:04:07.005Z,64.00
2019-04-27T10:06:36.950Z,64.30
2019-04-27T10:09:08.221Z,62.90
2019-04-27T10:11:38.043Z,61.10
2019-04-27T10:14:07.885Z,60.40
2019-04-27T10:16:37.726Z,61.40
2019-04-27T10:19:07.683Z,61.10
2019-04-27T10:21:39.785Z,62.50
2019-04-27T10:24:09.739Z,63.90
2019-04-27T10:26:39.641Z,65.30
2019-04-27T10:29:10.999Z,67.40
2019-04-27T10:31:40.833Z,67.80
2019-04-27T10:34:10.806Z,71.10
2019-04-27T10:36:40.838Z,73.40
2019-04-27T10:39:13.544Z,75.50
2019-04-27T10:41:43.727Z,76.90
2019-04-27T10:44:13.580Z,76.40
2019-04-27T10:46:43.611Z,74.00
2019-04-27T10:49:13.527Z,70.40
2019-04-27T10:51:43.438Z,71.30
2019-04-27T10:54:13.331Z,72.70
2019-04-27T10:56:43.409Z,72.90
2019-04-27T10:59:13.412Z,73.60
2019-04-27T11:01:43.369Z,75.70
2019-04-27T11:04:17.898Z,77.10
2019-04-27T11:06:52.414Z,78.30
2019-04-27T11:09:22.449Z,79.70
2019-04-27T11:11:52.463Z,81.80
2019-04-27T11:14:22.302Z,82.60
2019-04-27T11:16:52.215Z,83.30
2019-04-27T11:19:22.264Z,83.10
2019-04-27T11:21:52.417Z,83.50
2019-04-27T11:24:22.423Z,84.20
2019-04-27T11:26:52.281Z,83.70
2019-04-27T11:29:22.109Z,83.30
2019-04-27T11:31:52.167Z,83.50
2019-04-27T11:34:23.639Z,83.70
2019-04-27T11:36:57.599Z,83.60
2019-04-27T11:39:27.486Z,83.00
2019-04-27T11:41:57.453Z,82.70
2019-04-27T11:44:27.315Z,82.90
2019-04-27T11:46:57.161Z,82.80
2019-04-27T11:49:27.138Z,81.30
2019-04-27T11:51:57.067Z,79.70
2019-04-27T11:54:27.550Z,78.40
2019-04-27T11:56:57.796Z,76.90
2019-04-27T11:59:27.801Z,74.70
2019-04-27T12:01:57.748Z,73.30
2019-04-27T12:04:27.581Z,73.50
2019-04-27T12:06:57.545Z,74.60
2019-04-27T12:09:27.374Z,75.90
2019-04-27T12:12:12.381Z,76.40
2019-04-27T12:14:28.859Z,77.00
2019-04-27T12:16:58.776Z,78.50
2019-04-27T12:19:28.596Z,80.70
2019-04-27T12:21:58.468Z,81.30
2019-04-27T12:24:28.450Z,79.40
2019-04-27T12:27:00.003Z,78.40
2019-04-27T12:29:34.421Z,78.40
2019-04-27T12:32:05.629Z,79.10
2019-04-27T12:34:36.125Z,79.50
2019-04-27T12:37:07.297Z,80.80
2019-04-27T12:39:37.221Z,82.40
2019-04-27T12:42:07.158Z,83.40
2019-04-27T12:44:42.178Z,85.20
2019-04-27T12:47:08.691Z,85.70
2019-04-27T12:49:38.705Z,85.90
2019-04-27T12:52:08.595Z,86.60
2019-04-27T12:54:40.199Z,86.40
2019-04-27T12:57:12.019Z,86.60
2019-04-27T12:59:49.243Z,87.60
2019-04-27T13:02:21.954Z,87.20
2019-04-27T13:04:51.893Z,87.60
2019-04-27T13:07:21.898Z,86.60
2019-04-27T13:09:52.012Z,84.90
2019-04-27T13:12:22.173Z,83.70
2019-04-27T13:14:52.141Z,83.60
2019-04-27T13:17:23.544Z,84.80
2019-04-27T13:19:56.081Z,85.00
2019-04-27T13:22:26.269Z,86.10
2019-04-27T13:24:56.613Z,87.60
2019-04-27T13:27:27.036Z,89.20
2019-04-27T13:29:57.619Z,89.70
2019-04-27T13:32:29.120Z,90.00
2019-04-27T13:34:59.385Z,89.70
2019-04-27T13:37:33.982Z,89.20
2019-04-27T13:40:09.498Z,89.70
2019-04-27T13:42:38.176Z,89.50
2019-04-27T13:45:26.621Z,90.00
2019-04-27T13:48:14.244Z,90.10
2019-04-27T13:50:45.827Z,89.80
2019-04-27T13:53:16.758Z,89.60
2019-04-27T13:55:48.458Z,89.80
2019-04-27T13:58:18.436Z,90.60
2019-04-27T14:00:48.352Z,90.90
2019-04-27T14:03:20.868Z,91.10
2019-04-27T14:05:50.042Z,91.40
2019-04-27T14:08:19.949Z,91.90
2019-04-27T14:10:51.408Z,92.60
2019-04-27T14:13:21.444Z,92.80
2019-04-27T14:15:51.677Z,93.20
2019-04-27T14:18:21.778Z,93.70
2019-04-27T14:20:51.806Z,94.10
2019-04-27T14:23:23.382Z,94.30
2019-04-27T14:25:53.351Z,94.40
2019-04-27T14:28:23.244Z,94.20
2019-04-27T14:30:53.251Z,94.00
2019-04-27T14:33:23.273Z,94.60
2019-04-27T14:35:53.124Z,94.90
2019-04-27T14:38:24.018Z,94.90
2019-04-27T14:40:54.299Z,94.80
2019-04-27T14:43:24.110Z,94.60
2019-04-27T14:45:54.065Z,94.70
2019-04-27T14:48:23.996Z,95.30
2019-04-27T14:50:53.837Z,95.90
2019-04-27T14:53:23.803Z,96.00
2019-04-27T14:55:53.708Z,95.70
2019-04-27T14:58:23.623Z,96.00
2019-04-27T15:00:53.627Z,96.30
2019-04-27T15:03:23.550Z,96.60
2019-04-27T15:05:54.137Z,96.90
2019-04-27T15:08:25.617Z,96.90
2019-04-27T15:10:55.584Z,96.80
2019-04-27T15:13:25.459Z,96.80
2019-04-27T15:15:55.493Z,96.90
2019-04-27T15:18:29.595Z,97.30
2019-04-27T15:21:02.401Z,97.80
2019-04-27T15:23:30.887Z,97.80
2019-04-27T15:26:01.785Z,98.00
2019-04-27T15:28:33.361Z,98.80
2019-04-27T15:31:04.837Z,98.50
2019-04-27T15:33:54.659Z,99.00
2019-04-27T15:36:31.149Z,99.40
2019-04-27T15:39:22.495Z,99.50
2019-04-27T15:41:51.972Z,99.60
2019-04-27T15:44:21.902Z,99.90
2019-04-27T15:46:51.831Z,99.90
2019-04-27T15:49:21.964Z,99.90
2019-04-27T15:51:54.876Z,99.90
2019-04-27T15:54:29.076Z,99.90
2019-04-27T15:56:54.822Z,99.90
2019-04-27T15:59:37.199Z,99.90
2019-04-27T16:02:05.617Z,99.90
2019-04-27T16:04:34.622Z,99.90
2019-04-27T16:07:04.676Z,99.90
2019-04-27T16:09:34.609Z,99.90
2019-04-27T16:12:10.710Z,99.90
2019-04-27T16:14:36.481Z,99.90
2019-04-27T16:17:11.435Z,99.90
2019-04-27T16:19:40.669Z,99.90
2019-04-27T16:22:11.129Z,99.90
2019-04-27T16:24:42.300Z,99.90
2019-04-27T16:27:12.213Z,99.90
2019-04-27T16:29:42.248Z,99.90
2019-04-27T16:32:12.279Z,99.90
2019-04-27T16:34:42.291Z,99.90
2019-04-27T16:37:13.963Z,99.90
2019-04-27T16:39:47.207Z,99.90
2019-04-27T16:42:18.630Z,99.90
2019-04-27T16:44:52.936Z,99.90
2019-04-27T16:47:24.265Z,99.90
2019-04-27T16:49:51.725Z,99.90
2019-04-27T16:52:21.726Z,99.90
2019-04-27T16:54:57.031Z,99.90
2019-04-27T16:57:24.749Z,99.90
2019-04-27T16:59:57.514Z,99.90
2019-04-27T17:02:26.090Z,99.90
2019-04-27T17:04:56.035Z,99.90
2019-04-27T17:07:30.200Z,99.90
2019-04-27T17:09:59.494Z,99.90
2019-04-27T17:12:34.386Z,99.90
2019-04-27T17:15:05.750Z,99.90
2019-04-27T17:17:42.729Z,99.90
2019-04-27T17:20:12.993Z,99.90
2019-04-27T17:22:45.581Z,99.90
2019-04-27T17:25:15.431Z,99.90
2019-04-27T17:27:48.246Z,99.90
2019-04-27T17:30:18.920Z,99.90
2019-04-27T17:32:53.988Z,99.90
2019-04-27T17:35:23.987Z,99.90
2019-04-27T17:37:54.421Z,99.90
2019-04-27T17:40:24.483Z,99.90
2019-04-27T17:42:54.413Z,99.90
2019-04-27T17:45:24.509Z,99.90
2019-04-27T17:47:54.343Z,99.90
2019-04-27T17:50:26.273Z,99.90
2019-04-27T17:52:59.062Z,99.90
2019-04-27T17:55:29.285Z,99.90
2019-04-27T17:58:05.356Z,99.90
2019-04-27T18:00:32.905Z,99.90
2019-04-27T18:03:02.910Z,99.90
2019-04-27T18:05:32.910Z,99.90
2019-04-27T18:08:02.931Z,99.90
2019-04-27T18:10:33.033Z,99.90
2019-04-27T18:13:03.107Z,99.90
2019-04-27T18:15:33.137Z,99.90
2019-04-27T18:18:22.872Z,99.90
2019-04-27T18:20:52.109Z,99.90
2019-04-27T18:23:23.768Z,99.90
2019-04-27T18:25:55.268Z,99.90
2019-04-27T18:28:28.390Z,99.90
2019-04-27T18:30:59.905Z,99.90
2019-04-27T18:33:32.658Z,99.90
2019-04-27T18:36:05.425Z,99.90
2019-04-27T18:38:35.483Z,99.90
2019-04-27T18:41:07.995Z,99.90
2019-04-27T18:43:38.454Z,99.90
2019-04-27T18:46:09.066Z,99.90
2019-04-27T18:48:44.760Z,99.90
2019-04-27T18:51:30.279Z,99.90
2019-04-27T18:54:03.555Z,99.90
2019-04-27T18:56:33.483Z,99.90
2019-04-27T18:59:03.454Z,99.90
2019-04-27T19:01:33.462Z,99.90
2019-04-27T19:04:03.370Z,99.90
2019-04-27T19:06:33.425Z,99.90
2019-04-27T19:09:04.965Z,99.90
2019-04-27T19:11:34.973Z,99.90
2019-04-27T19:14:05.061Z,99.90
2019-04-27T19:16:35.075Z,99.90
2019-04-27T19:19:05.680Z,99.90
2019-04-27T19:21:35.688Z,99.90
2019-04-27T19:24:05.563Z,99.90
2019-04-27T19:26:49.210Z,99.90
2019-04-27T19:29:21.342Z,99.90
2019-04-27T19:31:59.072Z,99.90
2019-04-27T19:34:29.385Z,99.90
2019-04-27T19:36:59.719Z,99.90
2019-04-27T19:39:30.453Z,99.90
2019-04-27T19:42:03.743Z,99.90
2019-04-27T19:44:33.763Z,99.90
2019-04-27T19:47:05.857Z,99.90
2019-04-27T19:49:38.698Z,99.90
2019-04-27T19:52:08.820Z,99.90
2019-04-27T19:54:39.848Z,99.90
2019-04-27T19:57:10.296Z,99.90
2019-04-27T19:59:42.057Z,99.90
2019-04-27T20:02:15.541Z,99.90
2019-04-27T20:04:48.037Z,99.90
2019-04-27T20:07:18.515Z,99.90
2019-04-27T20:09:51.342Z,99.90
2019-04-27T20:12:21.659Z,99.90
2019-04-27T20:14:58.128Z,99.90
2019-04-27T20:17:31.195Z,99.90
2019-04-27T20:20:02.668Z,99.90
2019-04-27T20:22:33.401Z,99.90
2019-04-27T20:25:03.993Z,99.90
2019-04-27T20:27:46.026Z,99.90
2019-04-27T20:30:11.109Z,99.90
2019-04-27T20:32:41.863Z,99.90
2019-04-27T20:35:12.187Z,99.90
2019-04-27T20:37:42.717Z,99.90
2019-04-27T20:40:13.349Z,99.90
2019-04-27T20:42:46.537Z,99.90
2019-04-27T20:45:17.168Z,99.90
2019-04-27T20:47:47.508Z,99.90
2019-04-27T20:50:17.844Z,99.90
2019-04-27T20:52:50.881Z,99.90
2019-04-27T20:55:22.605Z,99.90
2019-04-27T20:58:01.652Z,99.90
2019-04-27T21:00:26.695Z,99.90
2019-04-27T21:03:04.461Z,99.90
2019-04-27T21:05:45.770Z,99.90
2019-04-27T21:08:17.735Z,99.90
2019-04-27T21:10:48.262Z,99.90
2019-04-27T21:13:18.673Z,99.90
2019-04-27T21:15:51.036Z,99.90
2019-04-27T21:18:21.894Z,99.90
2019-04-27T21:20:52.662Z,99.90
2019-04-27T21:23:25.819Z,99.90
2019-04-27T21:25:56.352Z,99.90
2019-04-27T21:28:26.877Z,99.90
2019-04-27T21:30:57.198Z,99.90
2019-04-27T21:33:27.727Z,99.90
2019-04-27T21:35:58.667Z,99.90
2019-04-27T21:38:28.992Z,99.90
2019-04-27T21:40:59.517Z,99.90
2019-04-27T21:43:29.846Z,99.90
2019-04-27T21:46:00.173Z,99.90
2019-04-27T21:48:31.278Z,99.90
2019-04-27T21:51:02.245Z,99.90
2019-04-27T21:53:36.666Z,99.90
2019-04-27T21:56:08.628Z,99.90
2019-04-27T21:58:38.954Z,99.90
2019-04-27T22:01:13.040Z,99.90
2019-04-27T22:03:43.490Z,99.90
2019-04-27T22:06:14.223Z,99.90
2019-04-27T22:08:44.741Z,99.90
2019-04-27T22:11:14.871Z,99.90
2019-04-27T22:13:45.200Z,99.90
2019-04-27T22:16:15.724Z,99.90
2019-04-27T22:18:46.460Z,99.90
2019-04-27T22:21:17.193Z,99.90
2019-04-27T22:24:11.231Z,99.90
2019-04-27T22:26:42.209Z,99.90
2019-04-27T22:29:12.942Z,99.90
2019-04-27T22:31:43.470Z,99.90
2019-04-27T22:34:13.590Z,99.90
2019-04-27T22:36:43.913Z,99.90
2019-04-27T22:39:33.889Z,99.90
2019-04-27T22:42:23.235Z,99.90
2019-04-27T22:44:54.822Z,99.90
2019-04-27T22:47:25.146Z,99.90
2019-04-27T22:49:55.674Z,99.90
2019-04-27T22:52:26.203Z,99.90
2019-04-27T22:54:56.526Z,99.90
2019-04-27T22:57:31.297Z,99.90
2019-04-27T23:00:03.707Z,99.90
2019-04-27T23:02:38.356Z,99.90
2019-04-27T23:05:10.824Z,99.90
2019-04-27T23:07:42.071Z,99.90
2019-04-27T23:10:12.748Z,99.90
2019-04-27T23:12:42.924Z,99.90
2019-04-27T23:15:15.091Z,99.90
2019-04-27T23:17:56.269Z,99.90
2019-04-27T23:20:26.897Z,99.90
2019-04-27T23:22:57.121Z,99.90
2019-04-27T23:25:27.444Z,99.90
2019-04-27T23:27:57.768Z,99.90
2019-04-27T23:30:31.213Z,99.90
2019-04-27T23:33:01.492Z,99.90
2019-04-27T23:35:32.947Z,99.90
2019-04-27T23:38:14.862Z,99.90
2019-04-27T23:40:35.122Z,99.90
2019-04-27T23:43:05.446Z,99.90
2019-04-27T23:45:35.974Z,99.90
2019-04-27T23:48:06.505Z,99.90
2019-04-27T23:50:38.465Z,99.90
2019-04-27T23:53:11.833Z,99.90
2019-04-27T23:55:42.594Z,99.90
2019-04-27T23:58:13.327Z,99.90
